Time;durP1;ratioP1;P1;durP2;ratioP2;P2;SDS_P1;SDS_P2;PMS_P1;PMS_P2;Temp;Humidity;BMP_temperature;BMP_pressure;BME280_temperature;BME280_humidity;BME280_pressure;Samples;Min_cycle;Max_cycle;Signal;HPM_P1;HPM_P2
2022/06/30 00:00:51;;;;;;;5.07;1.52;;;23.40;64.80;;;;;;4982401;28;87451;-69
2022/06/30 00:03:17;;;;;;;1.95;1.60;;;23.40;64.90;;;;;;4997775;28;90681;-69
2022/06/30 00:05:42;;;;;;;2.10;1.55;;;23.40;64.90;;;;;;4978231;28;91038;-69
2022/06/30 00:08:08;;;;;;;2.60;1.55;;;23.40;64.80;;;;;;4978200;28;91252;-69
2022/06/30 00:10:34;;;;;;;1.75;1.40;;;23.40;64.60;;;;;;4979046;28;87501;-70
2022/06/30 00:13:00;;;;;;;3.10;1.50;;;23.40;64.90;;;;;;4978842;28;89552;-70
2022/06/30 00:15:25;;;;;;;1.95;1.25;;;23.40;64.90;;;;;;4980542;28;90653;-70
2022/06/30 00:17:51;;;;;;;1.67;1.50;;;23.40;64.80;;;;;;4979527;28;88867;-70
2022/06/30 00:20:20;;;;;;;1.75;1.30;;;23.30;64.60;;;;;;4978489;28;87473;-68
2022/06/30 00:22:46;;;;;;;1.92;1.42;;;23.30;64.70;;;;;;4979542;28;89493;-71
2022/06/30 00:25:13;;;;;;;1.55;1.40;;;23.40;64.90;;;;;;4980157;28;88149;-69
2022/06/30 00:27:39;;;;;;;2.58;1.60;;;23.30;64.70;;;;;;4995504;28;89909;-68
2022/06/30 00:30:06;;;;;;;1.88;1.33;;;23.30;64.70;;;;;;4977583;28;87807;-71
2022/06/30 00:32:32;;;;;;;2.13;1.50;;;23.40;64.80;;;;;;4977165;28;88960;-69
2022/06/30 00:34:58;;;;;;;1.35;1.25;;;23.40;64.80;;;;;;4981884;28;91206;-69
2022/06/30 00:37:24;;;;;;;2.33;1.42;;;23.30;64.60;;;;;;4977937;28;90470;-71
2022/06/30 00:39:49;;;;;;;1.35;1.25;;;23.30;64.60;;;;;;4993925;28;88820;-69
2022/06/30 00:42:15;;;;;;;1.90;1.25;;;23.30;64.60;;;;;;4977912;28;87120;-68
2022/06/30 00:44:41;;;;;;;1.58;1.13;;;23.30;64.40;;;;;;4977047;28;90809;-69
2022/06/30 00:47:07;;;;;;;1.52;1.42;;;23.30;64.40;;;;;;4978249;28;90642;-70
2022/06/30 00:49:34;;;;;;;1.95;1.30;;;23.30;64.40;;;;;;4977743;28;87364;-71
2022/06/30 00:52:02;;;;;;;2.78;1.30;;;23.30;64.50;;;;;;4979465;28;88078;-68
2022/06/30 00:54:29;;;;;;;2.00;1.40;;;23.30;64.40;;;;;;4978455;28;89948;-69
2022/06/30 00:56:57;;;;;;;1.55;1.05;;;23.30;64.50;;;;;;4975794;28;90021;-68
2022/06/30 00:59:26;;;;;;;1.52;1.38;;;23.30;64.50;;;;;;4978616;28;87556;-70
2022/06/30 01:01:51;;;;;;;1.10;1.00;;;23.30;64.50;;;;;;4979359;28;89113;-71
2022/06/30 01:04:18;;;;;;;1.80;1.25;;;23.30;64.50;;;;;;4979488;28;90561;-69
2022/06/30 01:06:45;;;;;;;1.50;1.30;;;23.30;64.60;;;;;;4977195;28;91075;-69
2022/06/30 01:12:41;;;;;;;1.70;1.30;;;23.30;64.50;;;;;;4979720;28;87400;-70
2022/06/30 01:14:49;;;;;;;1.50;1.30;;;23.30;64.40;;;;;;4982585;28;88563;-69
2022/06/30 01:17:14;;;;;;;1.70;1.40;;;23.30;64.60;;;;;;4980028;28;87147;-69
2022/06/30 01:19:54;;;;;;;1.63;1.52;;;23.30;64.50;;;;;;4993401;28;88092;-69
2022/06/30 01:22:20;;;;;;;1.52;1.40;;;23.30;64.50;;;;;;4986320;28;90943;-71
2022/06/30 01:24:46;;;;;;;2.22;1.40;;;23.30;64.50;;;;;;4974779;28;90637;-71
2022/06/30 01:27:12;;;;;;;1.40;1.25;;;23.30;64.40;;;;;;4976889;28;87819;-70
2022/06/30 01:29:38;;;;;;;1.52;1.10;;;23.30;64.30;;;;;;4982498;28;88773;-69
2022/06/30 01:32:07;;;;;;;1.63;1.30;;;23.30;64.50;;;;;;4977725;28;90690;-69
2022/06/30 01:34:32;;;;;;;2.35;1.50;;;23.30;64.40;;;;;;4995933;28;92143;-69
2022/06/30 01:36:59;;;;;;;2.20;1.48;;;23.30;64.30;;;;;;4977997;28;88042;-69
2022/06/30 01:39:25;;;;;;;1.83;1.20;;;23.30;64.40;;;;;;4974100;28;87484;-69
2022/06/30 01:41:51;;;;;;;2.45;1.30;;;23.30;64.40;;;;;;4982017;28;89106;-69
2022/06/30 01:44:17;;;;;;;1.35;1.02;;;23.30;64.20;;;;;;4979166;28;88892;-69
2022/06/30 01:46:46;;;;;;;1.30;1.20;;;23.30;64.10;;;;;;4980073;28;87742;-69
2022/06/30 01:49:12;;;;;;;1.55;1.30;;;23.30;64.20;;;;;;4978804;28;88323;-69
2022/06/30 01:51:38;;;;;;;1.63;1.30;;;23.30;64.10;;;;;;4982316;28;91109;-69
2022/06/30 01:54:04;;;;;;;2.28;1.50;;;23.30;64.10;;;;;;4984768;28;88812;-71
2022/06/30 01:56:29;;;;;;;1.38;1.27;;;23.30;64.20;;;;;;4981819;28;91429;-68
2022/06/30 01:58:55;;;;;;;1.40;1.23;;;23.30;64.30;;;;;;4985401;28;88009;-69
2022/06/30 02:01:21;;;;;;;2.17;1.23;;;23.30;64.10;;;;;;5001163;28;89708;-69
2022/06/30 02:03:46;;;;;;;1.48;1.13;;;23.30;64.00;;;;;;4981755;28;88128;-69
2022/06/30 02:06:12;;;;;;;1.83;1.42;;;23.30;64.00;;;;;;4998943;28;90766;-68
2022/06/30 02:08:38;;;;;;;1.42;1.10;;;23.30;64.00;;;;;;4982380;28;87853;-69
2022/06/30 02:11:06;;;;;;;1.40;1.20;;;23.30;64.20;;;;;;4984406;28;87398;-69
2022/06/30 02:13:31;;;;;;;1.52;1.30;;;23.30;64.10;;;;;;4989973;28;92395;-69
2022/06/30 02:15:57;;;;;;;1.52;1.20;;;23.20;64.00;;;;;;4978383;28;90392;-69
2022/06/30 02:18:22;;;;;;;2.55;1.10;;;23.30;64.00;;;;;;4975728;28;88663;-70
2022/06/30 02:20:48;;;;;;;2.15;1.35;;;23.30;64.20;;;;;;4987371;28;87862;-68
2022/06/30 02:23:14;;;;;;;2.03;1.05;;;23.30;64.00;;;;;;4982111;28;90154;-69
2022/06/30 02:25:39;;;;;;;1.30;1.20;;;23.20;64.10;;;;;;4983210;28;87641;-68
2022/06/30 02:28:05;;;;;;;2.53;1.20;;;23.20;64.10;;;;;;4978452;28;87855;-70
2022/06/30 02:30:32;;;;;;;1.60;1.20;;;23.30;64.00;;;;;;4978138;28;89427;-69
2022/06/30 02:32:58;;;;;;;1.33;1.23;;;23.30;64.10;;;;;;4982219;28;92012;-68
2022/06/30 02:35:24;;;;;;;2.75;1.73;;;23.20;64.00;;;;;;4973175;28;88556;-69
2022/06/30 02:37:50;;;;;;;1.40;1.30;;;23.20;64.60;;;;;;4983191;28;87078;-70
2022/06/30 02:40:16;;;;;;;1.35;1.25;;;23.20;63.80;;;;;;4979328;28;90576;-69
2022/06/30 02:42:42;;;;;;;1.73;1.42;;;23.20;64.00;;;;;;4983321;28;89665;-70
2022/06/30 02:45:09;;;;;;;2.13;0.95;;;23.20;63.70;;;;;;4983952;28;92257;-69
2022/06/30 02:47:40;;;;;;;1.95;1.30;;;23.20;63.90;;;;;;4997520;28;86896;-69
2022/06/30 02:50:09;;;;;;;1.40;1.30;;;23.20;63.80;;;;;;4981252;28;89722;-70
2022/06/30 02:52:35;;;;;;;1.83;1.40;;;23.20;63.80;;;;;;4983346;28;88644;-70
2022/06/30 02:55:02;;;;;;;1.58;1.45;;;23.20;63.60;;;;;;4983293;28;87847;-71
2022/06/30 02:57:29;;;;;;;1.13;1.02;;;23.20;63.70;;;;;;4974789;28;88740;-69
2022/06/30 02:59:54;;;;;;;1.35;1.05;;;23.20;63.80;;;;;;4983862;28;86893;-68
2022/06/30 03:02:20;;;;;;;1.45;1.27;;;23.20;63.70;;;;;;4983813;28;88188;-69
2022/06/30 03:04:46;;;;;;;1.90;1.25;;;23.20;63.70;;;;;;4978247;28;88496;-69
2022/06/30 03:07:12;;;;;;;2.45;1.33;;;23.20;63.90;;;;;;4995121;28;88788;-69
2022/06/30 03:09:37;;;;;;;1.40;1.30;;;23.20;63.70;;;;;;4979884;28;88004;-68
2022/06/30 03:12:04;;;;;;;1.67;1.25;;;23.20;63.70;;;;;;4972694;28;91179;-69
2022/06/30 03:14:30;;;;;;;1.35;1.17;;;23.20;63.70;;;;;;4978518;28;90577;-68
2022/06/30 03:16:55;;;;;;;2.95;1.77;;;23.20;63.70;;;;;;4995942;28;87460;-68
2022/06/30 03:19:21;;;;;;;1.48;1.38;;;23.20;63.50;;;;;;4981448;28;90281;-69
2022/06/30 03:21:47;;;;;;;1.40;1.10;;;23.20;63.80;;;;;;4978277;28;88069;-69
2022/06/30 03:24:13;;;;;;;1.75;1.08;;;23.20;63.80;;;;;;4982472;28;87647;-70
2022/06/30 03:26:38;;;;;;;1.55;1.30;;;23.20;63.70;;;;;;4977306;28;87681;-70
2022/06/30 03:29:04;;;;;;;1.10;1.00;;;23.20;63.50;;;;;;4978941;28;90461;-68
2022/06/30 03:31:30;;;;;;;1.13;1.02;;;23.20;63.70;;;;;;4983353;28;89907;-69
2022/06/30 03:33:56;;;;;;;1.60;1.20;;;23.20;63.80;;;;;;4978337;28;88194;-71
2022/06/30 03:36:22;;;;;;;1.83;1.42;;;23.20;63.70;;;;;;4966836;28;87932;-70
2022/06/30 03:38:47;;;;;;;1.40;1.27;;;23.20;63.70;;;;;;4971692;28;87496;-70
2022/06/30 03:41:13;;;;;;;1.30;1.17;;;23.20;63.70;;;;;;4973915;28;90885;-69
2022/06/30 03:43:39;;;;;;;1.73;1.20;;;23.20;63.60;;;;;;4971478;28;88008;-69
2022/06/30 03:46:04;;;;;;;1.20;1.10;;;23.20;63.70;;;;;;4972872;28;87882;-69
2022/06/30 03:48:30;;;;;;;1.40;1.20;;;23.20;63.70;;;;;;4971408;28;87770;-70
2022/06/30 03:50:56;;;;;;;1.35;1.25;;;23.20;63.70;;;;;;4974623;28;87655;-70
2022/06/30 03:53:21;;;;;;;1.23;1.13;;;23.20;63.60;;;;;;4971959;28;89774;-69
2022/06/30 03:55:47;;;;;;;2.83;1.30;;;23.20;63.60;;;;;;4968798;28;88594;-69
2022/06/30 03:58:13;;;;;;;1.55;1.25;;;23.20;63.70;;;;;;4977284;28;87062;-68
2022/06/30 04:00:38;;;;;;;3.33;1.10;;;23.20;63.60;;;;;;4970978;28;88268;-69
2022/06/30 04:03:05;;;;;;;1.45;1.35;;;23.20;63.70;;;;;;4969393;28;88417;-69
2022/06/30 04:05:30;;;;;;;2.00;1.20;;;23.20;63.60;;;;;;4975239;28;87697;-69
2022/06/30 04:07:57;;;;;;;1.33;1.02;;;23.20;63.70;;;;;;4975486;28;87501;-69
2022/06/30 04:10:22;;;;;;;1.15;0.93;;;23.20;63.60;;;;;;4976724;28;87660;-69
2022/06/30 04:12:50;;;;;;;2.33;1.30;;;23.20;63.80;;;;;;4975040;28;89102;-69
2022/06/30 04:15:16;;;;;;;1.67;1.13;;;23.20;63.70;;;;;;4971670;28;87498;-70
2022/06/30 04:17:42;;;;;;;2.20;1.20;;;23.20;63.70;;;;;;4973424;28;88381;-69
2022/06/30 04:20:15;;;;;;;1.35;1.17;;;23.20;63.60;;;;;;4971996;28;89758;-69
2022/06/30 04:22:52;;;;;;;1.10;0.98;;;23.20;63.60;;;;;;4968061;28;92406;-69
2022/06/30 04:25:19;;;;;;;1.40;1.30;;;23.20;63.80;;;;;;4978684;28;87637;-69
2022/06/30 04:27:52;;;;;;;1.15;1.05;;;23.20;63.70;;;;;;4971934;28;88091;-69
2022/06/30 04:33:08;;;;;;;1.20;1.10;;;23.20;63.80;;;;;;4973127;28;88246;-69
2022/06/30 04:35:34;;;;;;;2.35;1.40;;;23.20;63.80;;;;;;4987484;28;87489;-68
2022/06/30 04:38:00;;;;;;;1.75;1.48;;;23.20;63.80;;;;;;4970743;28;86284;-69
2022/06/30 04:43:11;;;;;;;1.48;1.20;;;23.20;63.50;;;;;;4979320;28;87015;-70
2022/06/30 04:45:36;;;;;;;2.13;1.40;;;23.20;63.70;;;;;;4969002;28;88824;-68
2022/06/30 04:48:02;;;;;;;1.30;1.20;;;23.20;63.80;;;;;;4974065;28;86949;-71
2022/06/30 04:50:28;;;;;;;1.70;1.58;;;23.30;63.80;;;;;;4968321;28;88277;-70
2022/06/30 04:52:54;;;;;;;2.50;1.70;;;23.30;63.70;;;;;;4972326;28;87671;-68
2022/06/30 04:55:20;;;;;;;1.17;1.00;;;23.30;63.70;;;;;;4971033;28;87873;-71
2022/06/30 04:57:45;;;;;;;1.95;1.40;;;23.30;63.60;;;;;;4979995;28;87727;-68
2022/06/30 05:00:12;;;;;;;1.27;1.17;;;23.30;63.70;;;;;;4969511;28;87425;-68
2022/06/30 05:02:37;;;;;;;1.25;1.10;;;23.30;63.80;;;;;;4972666;28;92025;-69
2022/06/30 05:05:03;;;;;;;1.20;1.10;;;23.30;63.90;;;;;;4968197;28;87213;-69
2022/06/30 05:07:29;;;;;;;1.55;1.30;;;23.30;63.60;;;;;;4970797;28;87721;-71
2022/06/30 05:09:55;;;;;;;2.38;1.30;;;23.30;63.80;;;;;;4968853;28;91372;-68
2022/06/30 05:12:20;;;;;;;1.55;1.20;;;23.30;63.60;;;;;;4972288;28;94366;-68
2022/06/30 05:14:46;;;;;;;2.40;1.10;;;23.30;63.70;;;;;;4973558;28;87753;-71
2022/06/30 05:17:11;;;;;;;2.42;1.15;;;23.30;63.80;;;;;;4968100;28;88089;-71
2022/06/30 05:19:38;;;;;;;1.33;1.23;;;23.30;63.70;;;;;;4968645;28;88919;-71
2022/06/30 05:22:04;;;;;;;1.33;1.23;;;23.30;63.80;;;;;;4967601;28;88786;-69
2022/06/30 05:27:14;;;;;;;1.75;1.40;;;23.40;63.90;;;;;;4971552;28;87145;-71
2022/06/30 05:29:40;;;;;;;1.30;1.20;;;23.30;63.80;;;;;;4975858;28;91381;-70
2022/06/30 05:32:06;;;;;;;1.52;1.20;;;23.40;64.00;;;;;;4975896;28;87884;-70
2022/06/30 05:34:34;;;;;;;2.38;1.60;;;23.40;64.00;;;;;;4976137;28;88264;-69
2022/06/30 05:37:01;;;;;;;1.63;1.37;;;23.40;64.20;;;;;;4978928;28;88510;-69
2022/06/30 05:39:28;;;;;;;1.17;1.08;;;23.40;64.10;;;;;;4976133;28;87841;-71
2022/06/30 05:41:54;;;;;;;1.77;1.15;;;23.40;64.20;;;;;;4973123;28;87940;-71
2022/06/30 05:44:20;;;;;;;1.40;1.30;;;23.40;64.10;;;;;;4981333;28;87803;-69
2022/06/30 05:46:45;;;;;;;1.80;1.27;;;23.40;64.10;;;;;;4981693;28;88118;-71
2022/06/30 05:49:11;;;;;;;1.98;1.20;;;23.40;64.10;;;;;;4972440;28;91402;-68
2022/06/30 05:51:37;;;;;;;1.67;1.15;;;23.40;64.30;;;;;;4976597;28;88620;-68
2022/06/30 05:54:06;;;;;;;2.22;1.20;;;23.40;64.30;;;;;;4980163;28;86971;-68
2022/06/30 05:56:31;;;;;;;7.68;2.42;;;23.40;63.60;;;;;;4976019;28;87887;-69
2022/06/30 05:58:57;;;;;;;5.38;2.92;;;23.40;62.00;;;;;;4975538;28;88594;-70
2022/06/30 06:01:23;;;;;;;7.60;2.80;;;23.40;62.10;;;;;;4976454;28;91266;-69
2022/06/30 06:03:48;;;;;;;5.30;3.22;;;23.30;61.80;;;;;;4970667;28;87213;-70
2022/06/30 06:06:14;;;;;;;7.60;3.47;;;23.30;61.80;;;;;;4976621;28;87943;-70
2022/06/30 06:08:40;;;;;;;7.93;4.40;;;23.30;61.70;;;;;;4973272;28;91059;-69
2022/06/30 06:11:06;;;;;;;8.25;4.00;;;23.30;61.60;;;;;;4975866;28;87586;-70
2022/06/30 06:13:32;;;;;;;8.35;3.88;;;23.20;61.60;;;;;;4978282;28;88024;-70
2022/06/30 06:15:57;;;;;;;9.98;3.55;;;23.20;61.80;;;;;;4975698;28;87023;-71
2022/06/30 06:18:23;;;;;;;6.50;3.63;;;23.30;61.80;;;;;;4976739;28;88388;-70
2022/06/30 06:20:48;;;;;;;9.68;3.05;;;23.20;62.10;;;;;;4972392;28;90412;-69
2022/06/30 06:23:14;;;;;;;9.73;3.67;;;23.20;62.20;;;;;;4978726;28;88605;-70
2022/06/30 06:25:42;;;;;;;7.55;3.42;;;23.20;61.90;;;;;;4973140;28;88119;-69
2022/06/30 06:30:52;;;;;;;11.02;3.45;;;23.20;62.00;;;;;;4974715;28;87917;-71
2022/06/30 06:33:17;;;;;;;8.65;3.45;;;23.20;62.20;;;;;;4969667;28;87456;-69
2022/06/30 06:35:43;;;;;;;10.07;3.95;;;23.20;62.30;;;;;;4970824;28;87269;-70
2022/06/30 06:38:09;;;;;;;10.13;3.38;;;23.20;62.60;;;;;;4966143;28;90751;-69
2022/06/30 06:40:35;;;;;;;11.98;3.67;;;23.30;62.60;;;;;;4975352;28;90538;-69
2022/06/30 06:45:43;;;;;;;8.13;4.05;;;23.30;62.80;;;;;;3266730;22;89357;-69
2022/06/30 06:48:12;;;;;;;8.55;3.70;;;23.20;62.90;;;;;;4966221;28;89682;-69
2022/06/30 06:54:01;;;;;;;37.88;6.53;;;23.20;62.80;;;;;;4850448;28;90561;-71
2022/06/30 06:59:49;;;;;;;24.98;6.03;;;23.20;62.70;;;;;;4963898;28;89470;-69
2022/06/30 07:02:17;;;;;;;22.05;5.82;;;23.20;62.60;;;;;;4982701;28;87882;-69
2022/06/30 07:04:43;;;;;;;20.77;5.13;;;23.20;62.90;;;;;;4985213;28;87645;-68
2022/06/30 07:07:11;;;;;;;23.65;5.10;;;23.20;62.90;;;;;;4979297;28;86838;-69
2022/06/30 07:09:37;;;;;;;21.90;4.87;;;23.30;62.90;;;;;;4981444;28;87627;-68
2022/06/30 07:12:02;;;;;;;18.63;5.28;;;23.20;63.00;;;;;;4980007;28;90448;-69
2022/06/30 07:14:28;;;;;;;16.90;5.20;;;23.30;63.20;;;;;;4980660;28;88913;-69
2022/06/30 07:16:54;;;;;;;15.15;4.88;;;23.30;63.40;;;;;;4981911;28;90221;-69
2022/06/30 07:19:19;;;;;;;15.95;5.07;;;23.30;63.30;;;;;;4979524;28;88044;-69
2022/06/30 07:21:45;;;;;;;15.52;4.95;;;23.30;63.20;;;;;;4980581;28;88008;-69
2022/06/30 07:24:11;;;;;;;13.02;4.25;;;23.30;63.20;;;;;;4982718;28;87652;-69
2022/06/30 07:26:37;;;;;;;25.25;7.63;;;23.30;63.20;;;;;;4977192;28;89739;-70
2022/06/30 07:29:05;;;;;;;23.33;7.05;;;23.20;63.30;;;;;;4985179;28;88061;-70
2022/06/30 07:31:31;;;;;;;27.08;8.93;;;23.30;63.10;;;;;;4997294;28;91319;-70
2022/06/30 07:33:57;;;;;;;36.15;11.93;;;23.20;63.10;;;;;;4980776;28;87876;-70
2022/06/30 07:36:22;;;;;;;39.85;11.27;;;23.30;62.90;;;;;;4974362;28;90191;-69
2022/06/30 07:38:49;;;;;;;52.55;17.75;;;23.30;63.20;;;;;;4980538;28;89283;-68
2022/06/30 07:41:19;;;;;;;62.67;19.05;;;23.30;63.10;;;;;;4982251;28;88999;-71
2022/06/30 07:43:53;;;;;;;67.43;22.00;;;23.30;63.40;;;;;;4982951;28;86919;-71
2022/06/30 07:46:21;;;;;;;59.40;22.25;;;23.30;63.50;;;;;;4995884;28;89696;-72
2022/06/30 07:48:49;;;;;;;80.65;27.75;;;23.30;63.30;;;;;;4981235;28;88252;-69
2022/06/30 07:51:17;;;;;;;44.00;16.60;;;23.30;63.40;;;;;;4994496;28;90896;-69
2022/06/30 07:53:43;;;;;;;77.03;25.70;;;23.30;63.60;;;;;;4982714;28;87033;-69
2022/06/30 07:56:09;;;;;;;71.57;24.67;;;23.30;63.50;;;;;;4978851;28;86745;-70
2022/06/30 07:58:34;;;;;;;64.57;20.77;;;23.30;63.50;;;;;;4977643;28;90570;-69
2022/06/30 08:01:01;;;;;;;45.33;16.98;;;23.30;63.80;;;;;;4978045;28;91112;-69
2022/06/30 08:03:28;;;;;;;52.65;15.90;;;23.30;64.10;;;;;;4997434;28;88378;-72
2022/06/30 08:05:54;;;;;;;31.20;11.38;;;23.30;64.10;;;;;;4979455;28;89639;-69
2022/06/30 08:08:19;;;;;;;28.45;11.75;;;23.40;65.10;;;;;;4977022;28;88618;-68
2022/06/30 08:10:46;;;;;;;31.48;10.52;;;23.30;64.50;;;;;;4982070;28;87863;-69
2022/06/30 08:13:12;;;;;;;31.83;10.15;;;23.30;64.00;;;;;;4978723;28;87077;-68
2022/06/30 08:15:38;;;;;;;22.58;9.70;;;23.30;64.10;;;;;;4980654;28;87028;-67
2022/06/30 08:18:07;;;;;;;27.73;9.38;;;23.30;64.80;;;;;;4977380;28;91068;-67
2022/06/30 08:20:36;;;;;;;26.13;9.70;;;23.30;64.50;;;;;;4982117;28;86326;-70
2022/06/30 08:23:04;;;;;;;27.23;7.83;;;23.30;64.80;;;;;;4980795;28;87072;-68
2022/06/30 08:25:30;;;;;;;25.25;8.30;;;23.30;64.80;;;;;;4996850;28;89874;-68
2022/06/30 08:27:58;;;;;;;26.27;8.85;;;23.30;65.20;;;;;;4969954;28;92038;-69
2022/06/30 08:30:25;;;;;;;20.77;6.03;;;23.30;65.00;;;;;;4982171;28;89589;-68
2022/06/30 08:33:08;;;;;;;20.05;6.40;;;23.30;65.20;;;;;;4976645;28;86984;-68
2022/06/30 08:35:40;;;;;;;26.45;6.65;;;23.30;65.10;;;;;;4993384;28;88559;-68
2022/06/30 08:38:09;;;;;;;15.02;5.20;;;23.40;65.30;;;;;;4977359;28;88115;-68
2022/06/30 08:43:25;;;;;;;18.58;6.07;;;23.30;65.10;;;;;;4978016;28;87706;-68
2022/06/30 08:45:53;;;;;;;19.30;5.43;;;23.30;65.00;;;;;;4979437;28;88772;-68
2022/06/30 08:48:21;;;;;;;17.80;4.88;;;23.30;64.70;;;;;;4980251;28;90760;-68
2022/06/30 08:50:51;;;;;;;24.67;5.67;;;23.30;65.00;;;;;;4982446;28;87347;-69
2022/06/30 08:53:16;;;;;;;14.57;4.53;;;23.30;65.50;;;;;;4971444;28;88502;-69
2022/06/30 08:55:45;;;;;;;16.95;4.13;;;23.30;65.10;;;;;;4980759;28;87893;-72
2022/06/30 08:58:11;;;;;;;14.80;4.10;;;23.30;65.20;;;;;;4981856;28;88079;-70
2022/06/30 09:00:38;;;;;;;18.55;4.63;;;23.40;65.20;;;;;;4980281;28;88005;-69
2022/06/30 09:03:04;;;;;;;19.40;4.40;;;23.40;65.20;;;;;;4979643;28;87605;-70
2022/06/30 09:05:31;;;;;;;22.52;4.05;;;23.30;65.00;;;;;;4979713;28;90812;-70
2022/06/30 09:08:02;;;;;;;14.95;4.38;;;23.40;65.20;;;;;;4981884;28;91875;-71
2022/06/30 09:10:31;;;;;;;10.15;3.78;;;23.30;65.20;;;;;;4981721;28;87928;-69
2022/06/30 09:13:03;;;;;;;10.23;3.63;;;23.40;65.40;;;;;;4981778;28;87635;-69
2022/06/30 09:15:30;;;;;;;15.02;3.80;;;23.40;64.90;;;;;;4984518;28;89215;-70
2022/06/30 09:17:58;;;;;;;8.90;3.83;;;23.40;64.70;;;;;;4987144;28;89671;-71
2022/06/30 09:20:40;;;;;;;11.00;3.33;;;23.40;64.80;;;;;;4985471;28;87817;-72
2022/06/30 09:23:35;;;;;;;13.45;3.80;;;23.30;64.70;;;;;;4984526;28;87751;-70
2022/06/30 09:26:09;;;;;;;12.30;3.72;;;23.30;64.90;;;;;;4980142;28;87767;-69
2022/06/30 09:28:44;;;;;;;9.82;3.22;;;23.30;64.90;;;;;;4984764;28;88423;-72
2022/06/30 09:31:12;;;;;;;11.07;3.28;;;23.30;64.80;;;;;;4980769;28;90998;-69
2022/06/30 09:33:40;;;;;;;8.18;3.35;;;23.40;65.00;;;;;;4985487;28;87297;-68
2022/06/30 09:36:18;;;;;;;7.45;3.22;;;23.40;65.00;;;;;;4984034;28;87023;-69
2022/06/30 09:39:09;;;;;;;8.35;3.58;;;23.40;64.90;;;;;;4984117;28;88027;-69
2022/06/30 09:41:41;;;;;;;7.53;3.58;;;23.40;65.00;;;;;;4982534;28;87209;-69
2022/06/30 09:44:19;;;;;;;9.85;2.88;;;23.30;64.90;;;;;;4996872;28;88609;-71
2022/06/30 09:46:54;;;;;;;8.75;3.78;;;23.30;64.70;;;;;;4984635;28;87866;-69
2022/06/30 09:49:39;;;;;;;7.80;3.05;;;23.40;64.70;;;;;;4985623;28;88359;-70
2022/06/30 09:52:18;;;;;;;9.88;3.17;;;23.40;64.70;;;;;;4983892;28;87861;-69
2022/06/30 09:55:04;;;;;;;11.00;3.25;;;23.40;64.60;;;;;;4982366;28;87282;-69
2022/06/30 09:57:32;;;;;;;9.65;3.47;;;23.40;64.40;;;;;;4982354;28;89413;-69
2022/06/30 10:00:17;;;;;;;9.43;2.75;;;23.40;64.50;;;;;;4983719;28;88084;-69
2022/06/30 10:02:46;;;;;;;5.32;2.80;;;23.40;64.70;;;;;;4982375;28;87373;-69
2022/06/30 10:05:16;;;;;;;9.43;3.63;;;23.40;64.50;;;;;;4983976;28;87069;-68
2022/06/30 10:07:43;;;;;;;6.35;2.97;;;23.40;64.50;;;;;;4983578;28;90872;-70
2022/06/30 10:10:11;;;;;;;7.28;2.90;;;23.40;64.30;;;;;;4981599;28;89390;-69
2022/06/30 10:12:40;;;;;;;9.68;3.20;;;23.40;64.30;;;;;;4983596;28;89897;-69
2022/06/30 10:15:08;;;;;;;5.37;2.90;;;23.40;64.20;;;;;;4982205;28;87442;-69
2022/06/30 10:17:46;;;;;;;5.80;2.55;;;23.40;64.20;;;;;;4982031;28;90774;-69
2022/06/30 10:20:12;;;;;;;10.82;3.40;;;23.40;64.40;;;;;;4988750;28;87866;-72
2022/06/30 10:22:42;;;;;;;8.48;3.20;;;23.40;64.40;;;;;;4980276;28;90296;-68
2022/06/30 10:25:08;;;;;;;12.48;2.83;;;23.40;64.40;;;;;;4983597;28;88157;-67
2022/06/30 10:27:35;;;;;;;11.20;3.03;;;23.40;64.70;;;;;;4978014;28;90047;-70
2022/06/30 10:30:10;;;;;;;10.60;3.05;;;23.40;64.70;;;;;;4979816;28;87633;-69
2022/06/30 10:33:01;;;;;;;6.82;2.75;;;23.40;64.80;;;;;;4979171;28;88304;-68
2022/06/30 10:35:35;;;;;;;11.88;2.97;;;23.50;64.50;;;;;;4969844;28;88829;-68
2022/06/30 10:38:16;;;;;;;10.13;2.78;;;23.50;64.60;;;;;;4980463;28;89414;-67
2022/06/30 10:40:49;;;;;;;13.57;2.80;;;23.50;64.90;;;;;;4980872;28;88672;-70
2022/06/30 10:43:18;;;;;;;7.18;2.78;;;23.50;65.40;;;;;;4983813;28;87410;-69
2022/06/30 10:46:08;;;;;;;8.65;2.90;;;23.50;65.20;;;;;;4978500;28;87578;-68
2022/06/30 10:48:54;;;;;;;13.27;3.50;;;23.50;65.70;;;;;;5000515;28;89397;-68
2022/06/30 10:51:23;;;;;;;14.18;3.78;;;23.50;66.00;;;;;;4982623;28;89561;-69
2022/06/30 10:53:57;;;;;;;13.80;4.03;;;23.50;65.10;;;;;;4984263;28;89190;-69
2022/06/30 10:56:44;;;;;;;23.67;5.93;;;23.50;65.70;;;;;;4984214;28;87350;-68
2022/06/30 10:59:13;;;;;;;37.08;6.63;;;23.50;65.70;;;;;;4980463;28;88932;-68
2022/06/30 11:02:12;;;;;;;10.00;4.03;;;23.50;65.70;;;;;;4993089;28;92064;-68
2022/06/30 11:04:47;;;;;;;25.83;6.65;;;23.50;65.90;;;;;;4976963;28;90948;-68
2022/06/30 11:07:18;;;;;;;25.85;6.43;;;23.50;66.20;;;;;;4975503;28;87330;-68
2022/06/30 11:09:54;;;;;;;20.65;5.72;;;23.60;66.30;;;;;;4978128;28;87692;-68
2022/06/30 11:12:32;;;;;;;26.58;5.57;;;23.50;65.80;;;;;;4980130;28;87975;-67
2022/06/30 11:14:59;;;;;;;24.35;6.30;;;23.50;65.20;;;;;;4976482;28;87899;-68
2022/06/30 11:17:27;;;;;;;27.77;6.28;;;23.50;65.00;;;;;;4973967;28;88063;-69
2022/06/30 11:20:13;;;;;;;25.73;6.00;;;23.50;65.30;;;;;;4979659;28;88043;-69
2022/06/30 11:22:40;;;;;;;18.95;4.97;;;23.50;65.90;;;;;;4974728;28;89601;-70
2022/06/30 11:25:08;;;;;;;17.20;5.65;;;23.50;65.80;;;;;;4991244;28;91086;-69
2022/06/30 11:27:36;;;;;;;33.55;6.20;;;23.50;64.80;;;;;;4967865;28;88748;-69
2022/06/30 11:30:12;;;;;;;31.92;5.38;;;23.50;65.00;;;;;;4967722;28;89815;-70
2022/06/30 11:32:38;;;;;;;19.85;5.82;;;23.50;65.10;;;;;;4987899;28;90974;-70
2022/06/30 11:35:06;;;;;;;28.75;5.50;;;23.50;65.40;;;;;;4972004;28;88127;-70
2022/06/30 11:37:35;;;;;;;14.57;4.60;;;23.50;65.60;;;;;;4976170;28;87570;-70
2022/06/30 11:40:11;;;;;;;20.65;4.93;;;23.50;65.70;;;;;;4978889;28;88371;-71
2022/06/30 11:42:37;;;;;;;18.33;5.25;;;23.50;65.50;;;;;;4973930;28;88300;-71
2022/06/30 11:45:18;;;;;;;19.65;4.38;;;23.50;65.10;;;;;;4978038;28;87339;-70
2022/06/30 11:47:51;;;;;;;15.70;4.80;;;23.50;65.30;;;;;;4974937;28;87382;-73
2022/06/30 11:50:21;;;;;;;23.63;4.55;;;23.50;65.30;;;;;;4974728;28;87052;-74
2022/06/30 11:52:48;;;;;;;22.40;3.80;;;23.50;65.30;;;;;;4968965;28;93905;-75
2022/06/30 11:55:14;;;;;;;12.35;4.03;;;23.50;65.10;;;;;;4981271;28;88405;-71
2022/06/30 11:57:43;;;;;;;27.23;4.53;;;23.50;65.00;;;;;;4979297;28;87882;-71
2022/06/30 12:00:21;;;;;;;24.45;3.92;;;23.60;66.00;;;;;;4989129;28;89007;-74
2022/06/30 12:02:48;;;;;;;27.50;5.03;;;23.60;65.50;;;;;;4975725;28;88169;-70
2022/06/30 12:05:17;;;;;;;17.00;4.00;;;23.60;65.40;;;;;;4975990;28;88432;-69
2022/06/30 12:07:45;;;;;;;14.18;4.07;;;23.60;65.50;;;;;;4980211;28;87685;-71
2022/06/30 12:10:15;;;;;;;20.80;4.68;;;23.70;65.60;;;;;;4976813;28;89801;-70
2022/06/30 12:12:42;;;;;;;16.92;5.20;;;23.70;65.50;;;;;;4973285;28;91456;-69
2022/06/30 12:15:13;;;;;;;18.90;3.90;;;23.60;65.30;;;;;;4974611;28;90604;-69
2022/06/30 12:17:56;;;;;;;14.57;3.67;;;23.60;65.00;;;;;;4973120;28;88850;-71
2022/06/30 12:20:26;;;;;;;17.00;4.30;;;23.60;64.70;;;;;;4975258;28;89497;-73
2022/06/30 12:22:53;;;;;;;17.20;3.92;;;23.60;65.70;;;;;;4976560;28;88146;-71
2022/06/30 12:25:20;;;;;;;14.60;3.47;;;23.60;65.20;;;;;;4969073;28;90672;-72
2022/06/30 12:27:51;;;;;;;14.23;3.22;;;23.60;65.60;;;;;;4974617;28;88131;-72
2022/06/30 12:30:31;;;;;;;12.57;3.65;;;23.70;65.70;;;;;;4973926;28;87521;-71
2022/06/30 12:32:59;;;;;;;24.40;4.00;;;23.70;65.70;;;;;;4978060;28;91590;-73
2022/06/30 12:35:27;;;;;;;15.50;3.75;;;23.60;65.70;;;;;;4972974;28;91243;-70
2022/06/30 12:37:53;;;;;;;11.05;3.33;;;23.60;65.40;;;;;;4975382;28;87420;-70
2022/06/30 12:40:25;;;;;;;19.92;3.67;;;23.60;65.50;;;;;;4983731;28;87867;-72
2022/06/30 12:42:52;;;;;;;9.95;3.30;;;23.60;66.10;;;;;;4977729;28;88723;-75
2022/06/30 12:45:52;;;;;;;16.75;3.25;;;23.60;65.30;;;;;;4977120;28;87771;-70
2022/06/30 12:48:47;;;;;;;16.40;3.25;;;23.60;65.50;;;;;;4966643;28;88169;-71
2022/06/30 12:51:36;;;;;;;9.77;2.67;;;23.70;65.90;;;;;;4974111;28;87180;-70
2022/06/30 12:54:10;;;;;;;13.73;3.33;;;23.70;65.50;;;;;;4980060;28;87586;-70
2022/06/30 12:56:37;;;;;;;12.07;3.10;;;23.60;65.20;;;;;;4975057;28;90886;-74
2022/06/30 12:59:07;;;;;;;8.38;2.78;;;23.70;65.30;;;;;;4974640;28;87640;-73
2022/06/30 13:01:38;;;;;;;14.43;3.10;;;23.70;65.50;;;;;;4970490;28;86752;-71
2022/06/30 13:04:09;;;;;;;17.95;2.92;;;23.70;65.60;;;;;;4978062;28;91353;-76
2022/06/30 13:06:43;;;;;;;14.32;3.45;;;23.70;65.60;;;;;;4997228;28;91217;-76
2022/06/30 13:09:10;;;;;;;10.10;2.75;;;23.70;65.50;;;;;;4971046;28;87776;-72
2022/06/30 13:11:40;;;;;;;10.80;3.15;;;23.70;65.50;;;;;;4976107;28;87619;-68
2022/06/30 13:14:06;;;;;;;6.50;2.90;;;23.60;65.50;;;;;;4971141;28;91504;-70
2022/06/30 13:16:33;;;;;;;11.90;3.55;;;23.70;65.50;;;;;;4977691;28;87770;-69